createdAt,value
2019-04-06T00:01:34.449Z,9.20
2019-04-06T00:04:03.935Z,9.20
2019-04-06T00:06:33.199Z,9.20
2019-04-06T00:09:02.470Z,9.10
2019-04-06T00:11:31.812Z,9.20
2019-04-06T00:14:01.588Z,9.20
2019-04-06T00:16:31.320Z,9.20
2019-04-06T00:19:00.464Z,9.20
2019-04-06T00:21:29.763Z,9.20
2019-04-06T00:23:59.079Z,9.30
2019-04-06T00:26:29.012Z,9.30
2019-04-06T00:29:02.756Z,9.30
2019-04-06T00:31:54.351Z,9.30
2019-04-06T00:34:40.731Z,9.30
2019-04-06T00:37:10.260Z,9.30
2019-04-06T00:39:39.587Z,9.40
2019-04-06T00:42:09.260Z,9.40
2019-04-06T00:44:38.816Z,9.40
2019-04-06T00:47:08.380Z,9.40
2019-04-06T00:49:38.039Z,9.40
2019-04-06T00:52:07.255Z,9.30
2019-04-06T00:54:36.707Z,9.30
2019-04-06T00:57:06.285Z,9.30
2019-04-06T00:59:35.483Z,9.30
2019-04-06T01:02:06.196Z,9.40
2019-04-06T01:04:37.252Z,9.30
2019-04-06T01:07:06.783Z,9.40
2019-04-06T01:09:36.506Z,9.40
2019-04-06T01:12:05.937Z,9.30
2019-04-06T01:14:35.172Z,9.30
2019-04-06T01:17:05.439Z,9.30
2019-04-06T01:19:35.124Z,9.30
2019-04-06T01:22:05.864Z,9.30
2019-04-06T01:24:35.596Z,9.30
2019-04-06T01:27:05.163Z,9.30
2019-04-06T01:29:34.431Z,9.20
2019-04-06T01:32:04.007Z,9.30
2019-04-06T01:34:33.411Z,9.30
2019-04-06T01:37:04.157Z,9.30
2019-04-06T01:39:34.216Z,9.30
2019-04-06T01:42:03.565Z,9.20
2019-04-06T01:44:34.302Z,9.30
2019-04-06T01:47:03.597Z,9.30
2019-04-06T01:49:33.009Z,9.30
2019-04-06T01:52:02.375Z,9.20
2019-04-06T01:54:31.580Z,9.20
2019-04-06T01:57:01.170Z,9.20
2019-04-06T01:59:30.403Z,9.20
2019-04-06T02:02:04.619Z,9.20
2019-04-06T02:04:34.221Z,9.20
2019-04-06T02:07:03.543Z,9.20
2019-04-06T02:12:08.018Z,9.20
2019-04-06T02:14:37.101Z,9.20
2019-04-06T02:17:06.269Z,9.20
2019-04-06T02:19:36.231Z,9.20
2019-04-06T02:22:05.824Z,9.10
2019-04-06T02:24:35.054Z,9.10
2019-04-06T02:27:04.489Z,9.10
2019-04-06T02:29:34.918Z,9.10
2019-04-06T02:32:22.898Z,9.00
2019-04-06T02:35:20.415Z,9.00
2019-04-06T02:38:02.762Z,9.00
2019-04-06T02:40:51.110Z,9.10
2019-04-06T02:43:31.802Z,9.00
2019-04-06T02:46:01.415Z,9.00
2019-04-06T02:48:31.054Z,9.00
2019-04-06T02:51:00.505Z,9.10
2019-04-06T02:53:29.885Z,9.10
2019-04-06T02:55:59.276Z,9.10
2019-04-06T02:58:29.190Z,9.10
2019-04-06T03:00:58.705Z,9.10
2019-04-06T03:03:27.954Z,9.10
2019-04-06T03:05:57.278Z,9.10
2019-04-06T03:08:27.025Z,9.10
2019-04-06T03:10:56.651Z,9.20
2019-04-06T03:13:25.941Z,9.20
2019-04-06T03:15:55.245Z,9.20
2019-04-06T03:18:24.850Z,9.20
2019-04-06T03:20:54.891Z,9.20
2019-04-06T03:23:25.394Z,9.20
2019-04-06T03:25:55.203Z,9.20
2019-04-06T03:28:24.374Z,9.10
2019-04-06T03:30:53.676Z,9.10
2019-04-06T03:33:23.745Z,9.10
2019-04-06T03:35:53.852Z,9.10
2019-04-06T03:38:37.099Z,9.10
2019-04-06T03:41:06.633Z,9.10
2019-04-06T03:43:35.896Z,9.10
2019-04-06T03:46:05.494Z,9.10
2019-04-06T03:48:34.849Z,9.10
2019-04-06T03:51:04.327Z,9.20
2019-04-06T03:53:33.838Z,9.20
2019-04-06T03:56:03.538Z,9.10
2019-04-06T03:58:32.876Z,9.00
2019-04-06T04:01:02.628Z,9.00
2019-04-06T04:03:31.823Z,9.00
2019-04-06T04:06:00.928Z,9.00
2019-04-06T04:08:31.074Z,9.00
2019-04-06T04:11:00.709Z,9.10
2019-04-06T04:13:29.970Z,9.10
2019-04-06T04:15:59.287Z,9.00
2019-04-06T04:18:28.406Z,9.00
2019-04-06T04:20:58.395Z,9.00
2019-04-06T04:23:28.639Z,9.00
2019-04-06T04:25:57.814Z,9.00
2019-04-06T04:28:27.400Z,9.00
2019-04-06T04:30:56.635Z,9.00
2019-04-06T04:33:25.800Z,9.00
2019-04-06T04:35:55.038Z,9.00
2019-04-06T04:38:25.085Z,9.00
2019-04-06T04:40:56.405Z,9.00
2019-04-06T04:43:25.704Z,9.00
2019-04-06T04:45:55.428Z,9.00
2019-04-06T04:48:24.784Z,8.90
2019-04-06T04:50:53.976Z,8.90
2019-04-06T04:53:25.377Z,9.00
2019-04-06T04:55:54.483Z,8.90
2019-04-06T04:58:24.407Z,8.90
2019-04-06T05:00:54.240Z,8.90
2019-04-06T05:03:24.101Z,9.00
2019-04-06T05:05:53.309Z,9.00
2019-04-06T05:08:22.675Z,9.00
2019-04-06T05:10:52.235Z,9.00
2019-04-06T05:13:23.604Z,9.00
2019-04-06T05:16:24.260Z,9.10
2019-04-06T05:18:53.452Z,9.10
2019-04-06T05:21:23.472Z,9.20
2019-04-06T05:23:52.627Z,9.20
2019-04-06T05:26:22.196Z,9.30
2019-04-06T05:28:51.359Z,9.20
2019-04-06T05:31:20.840Z,9.30
2019-04-06T05:33:50.515Z,9.30
2019-04-06T05:36:19.596Z,9.40
2019-04-06T05:38:48.819Z,9.50
2019-04-06T05:41:18.000Z,9.50
2019-04-06T05:43:47.243Z,9.50
2019-04-06T05:46:16.417Z,9.50
2019-04-06T05:48:46.008Z,9.60
2019-04-06T05:51:15.932Z,9.70
2019-04-06T05:53:45.076Z,9.70
2019-04-06T05:56:14.641Z,9.70
2019-04-06T05:58:44.793Z,9.80
2019-04-06T06:01:15.151Z,9.80
2019-04-06T06:03:44.395Z,9.90
2019-04-06T06:06:29.374Z,9.90
2019-04-06T06:09:13.889Z,9.90
2019-04-06T06:11:44.500Z,9.90
2019-04-06T06:14:13.949Z,10.00
2019-04-06T06:16:43.124Z,10.00
2019-04-06T06:19:12.760Z,10.00
2019-04-06T06:21:42.248Z,10.10
2019-04-06T06:24:11.544Z,10.10
2019-04-06T06:26:42.385Z,10.10
2019-04-06T06:29:11.735Z,10.20
2019-04-06T06:31:41.152Z,10.20
2019-04-06T06:34:10.501Z,10.20
2019-04-06T06:36:39.997Z,10.20
2019-04-06T06:39:09.676Z,10.30
2019-04-06T06:41:39.119Z,10.40
2019-04-06T06:44:09.359Z,10.40
2019-04-06T06:46:38.892Z,10.50
2019-04-06T06:49:08.136Z,10.60
2019-04-06T06:51:37.320Z,10.60
2019-04-06T06:54:07.501Z,10.70
2019-04-06T06:56:36.960Z,10.70
2019-04-06T06:59:06.156Z,10.70
2019-04-06T07:01:35.345Z,10.70
2019-04-06T07:04:04.816Z,10.80
2019-04-06T07:06:33.949Z,10.80
2019-04-06T07:09:05.219Z,10.80
2019-04-06T07:11:35.244Z,10.80
2019-04-06T07:14:04.650Z,10.90
2019-04-06T07:16:35.900Z,11.00
2019-04-06T07:19:06.323Z,11.10
2019-04-06T07:21:35.708Z,11.10
2019-04-06T07:24:05.357Z,11.10
2019-04-06T07:26:50.446Z,11.20
2019-04-06T07:29:19.664Z,11.20
2019-04-06T07:31:50.070Z,11.30
2019-04-06T07:34:19.263Z,11.30
2019-04-06T07:36:48.436Z,11.30
2019-04-06T07:39:18.371Z,11.30
2019-04-06T07:41:47.496Z,11.40
2019-04-06T07:44:17.549Z,11.30
2019-04-06T07:46:46.884Z,11.40
2019-04-06T07:49:16.063Z,11.40
2019-04-06T07:51:45.169Z,11.40
2019-04-06T07:54:14.456Z,11.60
2019-04-06T07:56:43.868Z,11.70
2019-04-06T07:59:14.317Z,11.80
2019-04-06T08:01:43.595Z,11.90
2019-04-06T08:04:17.151Z,11.90
2019-04-06T08:06:46.672Z,11.90
2019-04-06T08:09:15.900Z,12.00
2019-04-06T08:11:46.339Z,12.00
2019-04-06T08:14:15.624Z,12.00
2019-04-06T08:16:45.114Z,12.00
2019-04-06T08:19:14.260Z,12.10
2019-04-06T08:21:43.928Z,12.30
2019-04-06T08:24:15.121Z,12.30
2019-04-06T08:26:46.202Z,12.30
2019-04-06T08:29:15.691Z,12.30
2019-04-06T08:31:45.065Z,12.30
2019-04-06T08:34:14.665Z,12.30
2019-04-06T08:36:43.861Z,12.20
2019-04-06T08:39:13.054Z,12.20
2019-04-06T08:41:42.187Z,12.10
2019-04-06T08:44:11.418Z,12.00
2019-04-06T08:46:40.540Z,12.10
2019-04-06T08:49:10.292Z,12.20
2019-04-06T08:51:41.188Z,12.30
2019-04-06T08:54:10.775Z,12.40
2019-04-06T08:56:40.536Z,12.50
2019-04-06T08:59:13.163Z,12.70
2019-04-06T09:01:41.208Z,12.70
2019-04-06T09:04:10.652Z,12.70
2019-04-06T09:06:39.759Z,12.70
2019-04-06T09:09:09.043Z,12.90
2019-04-06T09:11:41.690Z,13.00
2019-04-06T09:14:12.035Z,13.00
2019-04-06T09:16:42.054Z,13.00
2019-04-06T09:19:11.132Z,13.20
2019-04-06T09:21:41.030Z,13.40
2019-04-06T09:24:10.267Z,13.40
2019-04-06T09:26:40.131Z,13.60
2019-04-06T09:29:09.768Z,13.80
2019-04-06T09:31:39.531Z,13.70
2019-04-06T09:34:09.210Z,13.90
2019-04-06T09:36:38.644Z,14.20
2019-04-06T09:39:07.980Z,14.30
2019-04-06T09:41:37.558Z,14.30
2019-04-06T09:44:08.653Z,14.20
2019-04-06T09:47:28.929Z,14.00
2019-04-06T09:50:08.560Z,14.00
2019-04-06T09:52:49.272Z,14.00
2019-04-06T09:55:29.112Z,13.90
2019-04-06T09:58:19.925Z,13.60
2019-04-06T10:01:06.589Z,13.60
2019-04-06T10:04:03.930Z,13.80
2019-04-06T10:06:42.561Z,14.00
2019-04-06T10:09:37.015Z,13.90
2019-04-06T10:12:24.112Z,13.90
2019-04-06T10:15:00.572Z,14.00
2019-04-06T10:17:47.720Z,13.80
2019-04-06T10:20:39.467Z,13.40
2019-04-06T10:23:26.835Z,13.40
2019-04-06T10:26:06.868Z,13.40
2019-04-06T10:28:49.783Z,13.40
2019-04-06T10:31:53.616Z,13.70
2019-04-06T10:34:41.339Z,13.80
2019-04-06T10:37:28.816Z,14.10
2019-04-06T10:40:20.143Z,14.40
2019-04-06T10:43:20.103Z,14.70
2019-04-06T10:46:06.056Z,15.10
2019-04-06T10:49:12.720Z,14.90
2019-04-06T10:52:03.973Z,15.00
2019-04-06T10:54:50.610Z,15.50
2019-04-06T10:57:33.635Z,15.70
2019-04-06T11:00:22.033Z,15.50
2019-04-06T11:02:56.779Z,15.00
2019-04-06T11:05:35.299Z,14.90
2019-04-06T11:08:12.892Z,14.90
2019-04-06T11:10:51.984Z,15.00
2019-04-06T11:13:38.968Z,15.30
2019-04-06T11:16:32.751Z,15.30
2019-04-06T11:19:12.496Z,15.60
2019-04-06T11:22:10.055Z,15.80
2019-04-06T11:25:09.491Z,16.20
2019-04-06T11:27:54.065Z,16.40
2019-04-06T11:30:41.392Z,16.00
2019-04-06T11:33:39.052Z,15.70
2019-04-06T11:36:40.320Z,15.60
2019-04-06T11:39:28.097Z,15.90
2019-04-06T11:42:15.135Z,15.90
2019-04-06T11:45:03.349Z,16.00
2019-04-06T11:47:43.519Z,16.30
2019-04-06T11:50:26.883Z,16.40
2019-04-06T11:53:14.281Z,16.30
2019-04-06T11:56:01.812Z,16.50
2019-04-06T11:58:38.308Z,16.70
2019-04-06T12:01:26.295Z,16.50
2019-04-06T12:04:24.096Z,16.60
2019-04-06T12:07:11.251Z,16.60
2019-04-06T12:09:55.377Z,16.70
2019-04-06T12:12:42.733Z,16.50
2019-04-06T12:18:22.446Z,16.30
2019-04-06T12:21:09.519Z,16.10
2019-04-06T12:24:18.216Z,16.00
2019-04-06T12:27:05.104Z,16.10
2019-04-06T12:29:42.399Z,16.10
2019-04-06T12:32:22.563Z,16.30
2019-04-06T12:35:23.851Z,16.30
2019-04-06T12:38:07.531Z,16.30
2019-04-06T12:40:56.370Z,16.50
2019-04-06T12:43:47.615Z,16.80
2019-04-06T12:46:41.572Z,17.10
2019-04-06T12:49:26.100Z,16.90
2019-04-06T12:52:11.594Z,16.80
2019-04-06T12:55:00.149Z,16.70
2019-04-06T12:57:50.553Z,16.70
2019-04-06T13:00:30.836Z,16.70
2019-04-06T13:03:28.420Z,16.70
2019-04-06T13:06:17.775Z,16.70
2019-04-06T13:08:58.326Z,16.50
2019-04-06T13:11:52.786Z,16.50
2019-04-06T13:14:48.821Z,16.50
2019-04-06T13:17:27.216Z,16.60
2019-04-06T13:23:04.078Z,16.70
2019-04-06T13:25:54.556Z,16.70
2019-04-06T13:28:39.907Z,16.70
2019-04-06T13:31:20.112Z,16.80
2019-04-06T13:34:20.766Z,16.80
2019-04-06T13:36:56.481Z,16.90
2019-04-06T13:39:45.873Z,16.90
2019-04-06T13:42:25.137Z,16.90
2019-04-06T13:45:05.107Z,16.90
2019-04-06T13:47:46.200Z,16.80
2019-04-06T13:50:53.741Z,16.80
2019-04-06T13:53:46.081Z,16.90
2019-04-06T13:56:34.604Z,16.90
2019-04-06T13:59:13.741Z,17.10
2019-04-06T14:01:52.169Z,17.10
2019-04-06T14:04:50.004Z,17.30
2019-04-06T14:07:36.924Z,17.30
2019-04-06T14:10:40.496Z,17.40
2019-04-06T14:13:19.916Z,17.30
2019-04-06T14:16:05.877Z,17.40
2019-04-06T14:18:51.928Z,17.50
2019-04-06T14:21:43.267Z,17.50
2019-04-06T14:24:44.013Z,17.50
2019-04-06T14:27:39.145Z,17.50
2019-04-06T14:30:30.668Z,17.50
2019-04-06T14:33:17.568Z,17.60
2019-04-06T14:36:09.602Z,17.60
2019-04-06T14:41:48.093Z,17.30
2019-04-06T14:44:34.966Z,17.30
2019-04-06T14:47:32.236Z,17.30
2019-04-06T14:50:10.843Z,17.20
2019-04-06T14:52:57.576Z,17.20
2019-04-06T14:55:41.228Z,17.30
2019-04-06T14:58:28.334Z,17.30
2019-04-06T15:01:13.004Z,17.10
2019-04-06T15:04:04.731Z,17.20
2019-04-06T15:06:49.843Z,17.10
2019-04-06T15:09:47.445Z,17.10
2019-04-06T15:12:25.118Z,17.20
2019-04-06T15:15:08.732Z,17.20
2019-04-06T15:18:03.860Z,17.30
2019-04-06T15:20:44.151Z,17.20
2019-04-06T15:23:24.463Z,17.10
2019-04-06T15:26:10.655Z,17.10
2019-04-06T15:28:55.213Z,17.00
2019-04-06T15:31:33.151Z,16.90
2019-04-06T15:34:24.058Z,16.90
2019-04-06T15:37:00.987Z,16.90
2019-04-06T15:39:44.803Z,16.90
2019-04-06T15:42:21.040Z,16.80
2019-04-06T15:45:09.220Z,16.80
2019-04-06T15:47:58.595Z,16.90
2019-04-06T15:50:52.991Z,16.90
2019-04-06T15:53:41.129Z,17.00
2019-04-06T15:56:20.614Z,17.00
2019-04-06T15:58:58.532Z,17.00
2019-04-06T16:02:02.186Z,17.10
2019-04-06T16:04:39.544Z,17.10
2019-04-06T16:07:16.607Z,17.10
2019-04-06T16:12:59.187Z,17.10
2019-04-06T16:15:47.990Z,17.10
2019-04-06T16:18:41.179Z,17.10
2019-04-06T16:21:22.001Z,17.10
2019-04-06T16:24:19.573Z,17.20
2019-04-06T16:27:11.444Z,17.20
2019-04-06T16:29:49.265Z,17.20
2019-04-06T16:32:32.511Z,17.20
2019-04-06T16:35:05.765Z,17.20
2019-04-06T16:37:52.635Z,17.30
2019-04-06T16:40:40.961Z,17.30
2019-04-06T16:43:38.394Z,17.30
2019-04-06T16:46:26.819Z,17.30
2019-04-06T16:49:15.110Z,17.40
2019-04-06T16:51:57.648Z,17.30
2019-04-06T16:54:37.588Z,17.20
2019-04-06T16:57:31.821Z,17.10
2019-04-06T17:00:35.181Z,17.10
2019-04-06T17:03:13.144Z,17.00
2019-04-06T17:06:05.280Z,17.00
2019-04-06T17:08:53.504Z,17.00
2019-04-06T17:11:44.452Z,17.00
2019-04-06T17:14:31.583Z,16.90
2019-04-06T17:17:09.758Z,16.90
2019-04-06T17:19:54.171Z,16.80
2019-04-06T17:22:45.515Z,16.80
2019-04-06T17:25:23.322Z,16.70
2019-04-06T17:28:24.024Z,16.70
2019-04-06T17:31:13.123Z,16.70
2019-04-06T17:33:53.253Z,16.60
2019-04-06T17:36:29.967Z,16.60
2019-04-06T17:39:09.519Z,16.50
2019-04-06T17:41:58.563Z,16.40
2019-04-06T17:44:46.058Z,16.30
2019-04-06T17:47:40.262Z,16.30
2019-04-06T17:50:47.048Z,16.10
2019-04-06T17:53:34.743Z,16.00
2019-04-06T17:56:12.575Z,15.90
2019-04-06T17:59:00.057Z,15.80
2019-04-06T18:01:57.890Z,15.70
2019-04-06T18:04:59.033Z,15.50
2019-04-06T18:07:40.824Z,15.40
2019-04-06T18:10:23.076Z,15.20
2019-04-06T18:13:15.044Z,15.10
2019-04-06T18:15:44.586Z,14.90
2019-04-06T18:18:13.908Z,14.80
2019-04-06T18:20:43.576Z,14.70
2019-04-06T18:23:12.816Z,14.60
2019-04-06T18:25:45.724Z,14.50
2019-04-06T18:28:16.457Z,14.40
2019-04-06T18:30:47.604Z,14.30
2019-04-06T18:33:20.659Z,14.20
2019-04-06T18:35:50.576Z,14.10
2019-04-06T18:38:25.720Z,14.10
2019-04-06T18:40:55.737Z,14.00
2019-04-06T18:43:25.292Z,14.10
2019-04-06T18:45:54.526Z,14.00
2019-04-06T18:48:23.744Z,14.00
2019-04-06T18:50:53.680Z,13.90
2019-04-06T18:53:23.053Z,13.70
2019-04-06T18:55:52.553Z,13.60
2019-04-06T18:58:22.048Z,13.70
2019-04-06T19:00:53.992Z,13.70
2019-04-06T19:03:23.288Z,13.60
2019-04-06T19:05:52.708Z,13.60
2019-04-06T19:08:22.009Z,13.40
2019-04-06T19:10:51.236Z,13.30
2019-04-06T19:13:20.593Z,13.40
2019-04-06T19:15:50.170Z,13.30
2019-04-06T19:18:20.349Z,13.30
2019-04-06T19:20:50.266Z,13.20
2019-04-06T19:23:19.750Z,13.10
2019-04-06T19:25:49.016Z,13.00
2019-04-06T19:28:18.650Z,13.00
2019-04-06T19:30:48.132Z,13.00
2019-04-06T19:33:23.338Z,13.00
2019-04-06T19:35:49.918Z,12.90
2019-04-06T19:38:20.435Z,12.90
2019-04-06T19:40:50.354Z,12.80
2019-04-06T19:43:21.846Z,12.80
2019-04-06T19:45:51.413Z,12.80
2019-04-06T19:48:20.808Z,12.80
2019-04-06T19:50:50.270Z,12.60
2019-04-06T19:53:19.557Z,12.70
2019-04-06T19:55:49.034Z,12.60
2019-04-06T19:58:18.375Z,12.40
2019-04-06T20:00:47.511Z,12.30
2019-04-06T20:03:16.844Z,12.30
2019-04-06T20:05:46.000Z,12.30
2019-04-06T20:08:15.207Z,12.40
2019-04-06T20:10:48.328Z,12.20
2019-04-06T20:13:17.492Z,12.30
2019-04-06T20:15:47.533Z,12.40
2019-04-06T20:18:17.084Z,12.30
2019-04-06T20:20:47.814Z,12.30
2019-04-06T20:23:17.000Z,12.30
2019-04-06T20:25:48.081Z,12.30
2019-04-06T20:28:17.584Z,12.20
2019-04-06T20:30:48.766Z,12.10
2019-04-06T20:33:19.885Z,12.10
2019-04-06T20:35:49.528Z,12.00
2019-04-06T20:38:18.796Z,12.10
2019-04-06T20:40:48.187Z,12.10
2019-04-06T20:43:18.542Z,12.00
2019-04-06T20:45:48.264Z,12.00
2019-04-06T20:48:17.469Z,12.00
2019-04-06T20:50:46.588Z,12.00
2019-04-06T20:53:16.760Z,12.10
2019-04-06T20:55:46.279Z,12.00
2019-04-06T20:58:19.451Z,12.00
2019-04-06T21:00:49.131Z,11.90
2019-04-06T21:03:18.850Z,11.90
2019-04-06T21:05:48.279Z,11.80
2019-04-06T21:08:18.776Z,11.80
2019-04-06T21:10:48.549Z,11.90
2019-04-06T21:13:17.861Z,11.90
2019-04-06T21:15:47.080Z,11.80
2019-04-06T21:18:16.972Z,11.90
2019-04-06T21:20:46.446Z,11.80
2019-04-06T21:23:15.972Z,11.80
2019-04-06T21:25:46.655Z,11.80
2019-04-06T21:28:18.173Z,11.80
2019-04-06T21:30:47.886Z,11.70
2019-04-06T21:33:18.609Z,11.80
2019-04-06T21:35:49.014Z,11.70
2019-04-06T21:38:18.519Z,11.70
2019-04-06T21:40:48.033Z,11.70
2019-04-06T21:43:17.643Z,11.60
2019-04-06T21:45:47.344Z,11.50
2019-04-06T21:48:17.079Z,11.50
2019-04-06T21:50:49.048Z,11.50
2019-04-06T21:53:18.605Z,11.40
2019-04-06T21:55:48.317Z,11.40
2019-04-06T21:58:17.740Z,11.30
2019-04-06T22:00:51.456Z,11.30
2019-04-06T22:03:21.120Z,11.30
2019-04-06T22:05:50.634Z,11.30
2019-04-06T22:08:20.323Z,11.20
2019-04-06T22:10:50.155Z,11.30
2019-04-06T22:13:19.815Z,11.30
2019-04-06T22:15:49.283Z,11.30
2019-04-06T22:18:19.230Z,11.30
2019-04-06T22:20:49.089Z,11.30
2019-04-06T22:23:18.559Z,11.30
2019-04-06T22:25:48.000Z,11.30
2019-04-06T22:28:17.739Z,11.20
2019-04-06T22:30:47.164Z,11.20
2019-04-06T22:33:17.367Z,11.10
2019-04-06T22:35:46.543Z,11.00
2019-04-06T22:38:15.800Z,11.10
2019-04-06T22:40:45.179Z,11.10
2019-04-06T22:43:14.639Z,11.10
2019-04-06T22:45:43.956Z,11.10
2019-04-06T22:48:14.724Z,11.20
2019-04-06T22:50:44.337Z,11.20
2019-04-06T22:53:13.428Z,11.20
2019-04-06T22:55:42.963Z,11.20
2019-04-06T22:58:12.193Z,11.30
2019-04-06T23:00:46.443Z,11.40
2019-04-06T23:03:46.899Z,11.40
2019-04-06T23:06:21.799Z,11.50
2019-04-06T23:08:50.979Z,11.50
2019-04-06T23:11:20.658Z,11.50
2019-04-06T23:13:50.330Z,11.50
2019-04-06T23:16:19.528Z,11.40
2019-04-06T23:18:49.279Z,11.30
2019-04-06T23:21:19.092Z,11.20
2019-04-06T23:23:48.800Z,11.10
2019-04-06T23:26:18.550Z,11.10
2019-04-06T23:28:48.118Z,11.10
2019-04-06T23:31:18.188Z,11.10
2019-04-06T23:33:47.392Z,11.20
2019-04-06T23:36:17.038Z,11.20
2019-04-06T23:38:46.432Z,11.20
2019-04-06T23:41:16.196Z,11.20
2019-04-06T23:43:47.132Z,11.20
2019-04-06T23:46:17.748Z,11.20
2019-04-06T23:48:47.448Z,11.30
2019-04-06T23:51:18.117Z,11.30
2019-04-06T23:53:48.240Z,11.40
2019-04-06T23:56:18.700Z,11.40
2019-04-06T23:58:47.927Z,11.40
